EDT,Max TemperatureF,Mean TemperatureF,Min TemperatureF,Max Dew PointF,MeanDew PointF,Min DewpointF,Max Humidity, Mean Humidity, Min Humidity, Max Sea Level PressureIn, Mean Sea Level PressureIn, Min Sea Level PressureIn, Max VisibilityMiles, Mean VisibilityMiles, Min VisibilityMiles, Max Wind SpeedMPH, Mean Wind SpeedMPH, Max Gust SpeedMPH,PrecipitationIn, CloudCover, Events, WindDirDegrees
2013-3-1,52,45,37,30,28,27,70,56,41,30.09,30.04,29.99,10,10,10,16,7,21,0.00,0,Rain,303
2013-3-2,44,39,33,30,28,25,89,69,49,30.10,30.07,30.04,10,10,10,20,9,24,0.00,6,,292
2013-3-3,46,38,30,28,24,19,70,52,34,30.17,30.11,30.08,10,10,10,18,9,25,0.00,5,,298
2013-3-4,62,44,26,35,27,20,92,58,23,30.25,30.17,30.12,10,9,4,12,4,15,0.00,0,,214
2013-3-5,75,61,46,58,48,32,83,64,44,30.12,30.01,29.84,10,10,7,28,11,39,T,6,Rain,233
2013-3-6,54,47,39,33,27,22,73,53,32,30.22,30.13,30.05,10,10,10,22,12,29,0.00,0,,311
2013-3-7,62,46,30,35,30,27,85,57,29,30.31,30.25,30.21,10,8,5,10,3,15,0.00,0,,313
2013-3-8,68,49,30,38,33,30,92,59,26,30.32,30.26,30.22,10,8,3,10,3,21,0.00,0,,18
2013-3-9,70,53,36,38,33,25,92,56,20,30.32,30.25,30.22,10,8,4,15,4,22,0.00,0,,98
2013-3-10,76,63,49,52,45,37,80,55,29,30.22,30.16,30.09,10,10,10,20,8,25,0.00,0,,136
2013-3-11,75,66,56,61,56,52,93,73,53,30.10,29.94,29.84,10,8,2,26,11,32,0.60,5,Rain,175
2013-3-12,63,52,41,61,46,33,100,65,29,30.13,29.95,29.83,10,7,2,14,9,20,0.20,4,Rain,301
2013-3-13,66,53,40,36,28,19,79,49,19,30.27,30.20,30.13,10,10,9,22,9,29,0.00,0,,315
2013-3-14,61,49,36,31,23,17,70,45,19,30.42,30.32,30.26,10,9,4,15,6,20,0.00,0,,342
2013-3-15,73,54,35,42,35,30,89,58,26,30.32,30.23,30.12,10,8,4,14,5,18,0.00,0,,237
2013-3-16,78,61,44,50,46,43,69,65,61,30.15,30.09,29.99,10,10,6,21,9,33,0.00,0,,238
2013-3-17,73,62,50,63,56,48,100,77,53,30.10,30.05,30.00,10,7,0,13,5,17,T,5,Fog-Rain,198
2013-3-18,80,69,58,63,60,55,100,79,58,30.04,29.98,29.83,10,6,2,23,7,30,0.63,7,Rain-Thunderstorm,186
2013-3-19,76,66,56,58,53,31,100,66,32,30.07,30.00,29.89,10,10,7,13,5,28,0.03,4,Rain,291
2013-3-20,68,56,43,38,30,25,66,43,20,30.13,30.03,29.94,10,10,10,16,6,28,0.00,2,,7
2013-3-21,63,51,39,32,25,15,64,41,17,30.04,29.98,29.92,10,10,8,18,7,24,0.00,0,,305
2013-3-22,58,52,46,47,33,18,100,65,29,30.09,30.03,29.98,10,10,9,13,7,21,T,6,Rain,62
2013-3-23,62,56,49,56,51,45,100,84,67,30.00,29.87,29.76,10,7,2,20,7,28,0.88,8,Rain-Thunderstorm,78
2013-3-24,80,67,54,68,59,39,100,71,42,29.76,29.61,29.52,10,8,1,29,9,39,0.47,6,Rain-Thunderstorm,242
2013-3-25,58,50,41,38,25,15,58,40,21,30.14,29.96,29.79,10,10,10,24,13,35,0.00,0,,294
2013-3-26,53,44,34,25,23,22,64,47,30,30.33,30.22,30.16,10,10,10,22,11,33,0.00,1,,313
2013-3-27,61,46,31,31,25,20,78,50,21,30.40,30.34,30.27,10,10,8,14,4,55,0.00,0,,319
2013-3-28,68,51,33,36,30,26,89,56,22,30.39,30.32,30.25,10,10,9,14,3,26,0.00,0,,340
2013-3-29,73,55,37,41,35,30,92,57,22,30.37,30.29,30.22,10,9,5,10,2,24,0.00,0,,229
2013-3-30,77,61,44,53,46,39,92,64,35,30.25,30.18,30.10,10,9,5,15,7,21,T,1,,216
2013-3-31,79,69,58,65,56,41,90,70,49,30.11,30.02,29.94,10,10,9,25,9,31,0.02,4,,216